createdAt,value
2018-08-20T00:01:36.631Z,25.53
2018-08-20T00:04:06.981Z,32.03
2018-08-20T00:06:50.378Z,24.67
2018-08-20T00:09:20.727Z,19.50
2018-08-20T00:11:49.997Z,23.70
2018-08-20T00:14:21.172Z,20.03
2018-08-20T00:16:50.235Z,23.93
2018-08-20T00:19:19.217Z,20.87
2018-08-20T00:21:48.204Z,21.17
2018-08-20T00:24:17.111Z,21.03
2018-08-20T00:26:46.002Z,20.00
2018-08-20T00:29:14.924Z,24.77
2018-08-20T00:31:43.789Z,23.10
2018-08-20T00:34:12.720Z,22.57
2018-08-20T00:36:41.958Z,21.93
2018-08-20T00:39:11.594Z,21.60
2018-08-20T00:41:40.493Z,29.97
2018-08-20T00:44:12.353Z,26.07
2018-08-20T00:46:42.265Z,26.27
2018-08-20T00:49:11.463Z,26.47
2018-08-20T00:51:40.377Z,25.40
2018-08-20T00:54:09.296Z,27.60
2018-08-20T00:56:38.246Z,27.07
2018-08-20T00:59:07.140Z,25.00
2018-08-20T01:01:36.075Z,23.17
2018-08-20T01:04:05.092Z,29.10
2018-08-20T01:06:34.048Z,27.90
2018-08-20T01:09:03.005Z,20.60
2018-08-20T01:11:31.903Z,22.30
2018-08-20T01:14:00.834Z,26.23
2018-08-20T01:16:29.754Z,21.87
2018-08-20T01:18:58.720Z,21.33
2018-08-20T01:21:27.656Z,22.70
2018-08-20T01:23:56.583Z,17.13
2018-08-20T01:26:25.496Z,24.83
2018-08-20T01:28:54.461Z,17.07
2018-08-20T01:31:23.379Z,17.13
2018-08-20T01:33:52.379Z,17.70
2018-08-20T01:36:21.333Z,19.73
2018-08-20T01:38:50.288Z,27.57
2018-08-20T01:41:19.192Z,22.17
2018-08-20T01:43:48.095Z,20.50
2018-08-20T01:46:17.017Z,17.03
2018-08-20T01:48:45.947Z,18.00
2018-08-20T01:51:14.877Z,20.03
2018-08-20T01:53:43.797Z,19.17
2018-08-20T01:56:12.787Z,23.30
2018-08-20T01:58:41.703Z,18.87
2018-08-20T02:01:10.664Z,15.27
2018-08-20T02:03:39.576Z,24.33
2018-08-20T02:06:08.504Z,23.43
2018-08-20T02:08:37.455Z,20.07
2018-08-20T02:11:06.391Z,23.10
2018-08-20T02:13:35.295Z,26.67
2018-08-20T02:16:04.264Z,19.13
2018-08-20T02:18:33.171Z,23.27
2018-08-20T02:21:02.106Z,19.23
2018-08-20T02:23:31.075Z,27.37
2018-08-20T02:25:59.955Z,21.63
2018-08-20T02:28:29.106Z,22.37
2018-08-20T02:30:58.023Z,22.30
2018-08-20T02:33:26.923Z,25.17
2018-08-20T02:35:55.885Z,13.40
2018-08-20T02:38:24.796Z,21.03
2018-08-20T02:40:53.759Z,17.90
2018-08-20T02:43:22.773Z,20.47
2018-08-20T02:45:51.680Z,21.30
2018-08-20T02:48:20.684Z,21.77
2018-08-20T02:50:49.816Z,13.50
2018-08-20T02:53:18.734Z,20.20
2018-08-20T02:55:47.699Z,21.33
2018-08-20T02:58:16.619Z,19.00
2018-08-20T03:00:45.551Z,18.40
2018-08-20T03:03:14.423Z,18.53
2018-08-20T03:05:43.330Z,17.60
2018-08-20T03:08:12.272Z,20.10
2018-08-20T03:10:41.184Z,28.70
2018-08-20T03:13:10.083Z,22.23
2018-08-20T03:15:39.012Z,19.63
2018-08-20T03:18:08.068Z,18.60
2018-08-20T03:20:37.024Z,18.93
2018-08-20T03:23:06.396Z,19.93
2018-08-20T03:25:35.302Z,16.37
2018-08-20T03:28:04.407Z,18.30
2018-08-20T03:30:33.436Z,19.60
2018-08-20T03:33:02.438Z,22.70
2018-08-20T03:35:31.375Z,21.90
2018-08-20T03:38:00.303Z,21.70
2018-08-20T03:40:29.222Z,20.37
2018-08-20T03:42:58.170Z,14.57
2018-08-20T03:45:27.172Z,16.73
2018-08-20T03:47:56.086Z,14.40
2018-08-20T03:50:26.040Z,18.63
2018-08-20T03:52:55.152Z,20.53
2018-08-20T03:55:24.141Z,20.63
2018-08-20T03:57:53.008Z,15.10
2018-08-20T04:00:24.257Z,15.87
2018-08-20T04:02:53.446Z,15.73
2018-08-20T04:05:22.387Z,18.67
2018-08-20T04:07:51.242Z,17.30
2018-08-20T04:10:20.156Z,16.60
2018-08-20T04:12:49.060Z,16.63
2018-08-20T04:15:18.080Z,17.63
2018-08-20T04:17:46.954Z,15.13
2018-08-20T04:20:15.877Z,12.97
2018-08-20T04:22:44.793Z,16.83
2018-08-20T04:25:13.734Z,14.60
2018-08-20T04:27:42.656Z,12.73
2018-08-20T04:30:11.575Z,14.30
2018-08-20T04:32:40.525Z,13.43
2018-08-20T04:35:09.478Z,13.10
2018-08-20T04:37:38.353Z,15.80
2018-08-20T04:40:08.670Z,13.47
2018-08-20T04:42:37.583Z,7.40
2018-08-20T04:45:07.261Z,13.30
2018-08-20T04:47:36.152Z,13.43
2018-08-20T04:50:07.355Z,5.57
2018-08-20T04:52:36.144Z,9.00
2018-08-20T04:55:05.228Z,10.07
2018-08-20T04:57:34.102Z,7.40
2018-08-20T05:00:03.036Z,10.53
2018-08-20T05:02:31.961Z,9.17
2018-08-20T05:05:00.856Z,7.93
2018-08-20T05:07:29.798Z,5.67
2018-08-20T05:09:58.706Z,8.43
2018-08-20T05:12:27.574Z,6.90
2018-08-20T05:14:56.494Z,9.30
2018-08-20T05:17:25.611Z,6.30
2018-08-20T05:19:54.538Z,5.77
2018-08-20T05:22:23.492Z,6.33
2018-08-20T05:24:52.418Z,3.93
2018-08-20T05:27:21.291Z,9.90
2018-08-20T05:29:50.196Z,8.43
2018-08-20T05:32:19.672Z,4.47
2018-08-20T05:34:48.860Z,7.10
2018-08-20T05:37:17.825Z,4.60
2018-08-20T05:39:46.794Z,9.43
2018-08-20T05:42:15.713Z,6.73
2018-08-20T05:44:44.664Z,6.73
2018-08-20T05:47:13.538Z,4.10
2018-08-20T05:49:42.450Z,7.33
2018-08-20T05:52:11.364Z,6.80
2018-08-20T05:54:40.382Z,9.37
2018-08-20T05:57:09.397Z,6.07
2018-08-20T05:59:38.419Z,7.77
2018-08-20T06:02:07.393Z,6.17
2018-08-20T06:04:36.310Z,5.40
2018-08-20T06:07:05.272Z,5.53
2018-08-20T06:09:34.150Z,7.33
2018-08-20T06:12:03.096Z,7.47
2018-08-20T06:14:32.014Z,8.03
2018-08-20T06:17:01.109Z,8.90
2018-08-20T06:19:30.018Z,6.30
2018-08-20T06:21:58.944Z,5.10
2018-08-20T06:24:27.854Z,7.30
2018-08-20T06:26:56.738Z,9.20
2018-08-20T06:29:25.745Z,10.50
2018-08-20T06:31:54.655Z,5.70
2018-08-20T06:34:23.560Z,4.80
2018-08-20T06:36:52.507Z,5.90
2018-08-20T06:39:21.563Z,5.10
2018-08-20T06:41:50.513Z,9.13
2018-08-20T06:44:19.469Z,7.43
2018-08-20T06:46:48.350Z,10.53
2018-08-20T06:49:18.391Z,6.23
2018-08-20T06:51:47.318Z,7.40
2018-08-20T06:54:16.228Z,7.90
2018-08-20T06:56:45.171Z,5.40
2018-08-20T06:59:14.235Z,5.20
2018-08-20T07:01:43.139Z,7.80
2018-08-20T07:04:12.063Z,7.13
2018-08-20T07:06:41.056Z,3.70
2018-08-20T07:09:10.059Z,7.50
2018-08-20T07:11:39.060Z,6.13
2018-08-20T07:14:08.032Z,6.47
2018-08-20T07:16:37.060Z,5.70
2018-08-20T07:19:05.999Z,9.57
2018-08-20T07:21:34.960Z,3.03
2018-08-20T07:24:03.960Z,4.03
2018-08-20T07:26:32.910Z,2.40
2018-08-20T07:29:01.794Z,3.00
2018-08-20T07:31:30.748Z,2.50
2018-08-20T07:33:59.702Z,5.23
2018-08-20T07:36:28.680Z,2.93
2018-08-20T07:38:57.748Z,6.60
2018-08-20T07:41:26.742Z,2.80
2018-08-20T07:43:56.760Z,5.57
2018-08-20T07:46:25.652Z,5.93
2018-08-20T07:48:54.555Z,3.23
2018-08-20T07:51:23.544Z,7.33
2018-08-20T07:53:52.469Z,6.50
2018-08-20T07:56:21.411Z,5.33
2018-08-20T07:58:55.866Z,4.60
2018-08-20T08:01:30.385Z,3.87
2018-08-20T08:03:59.366Z,2.93
2018-08-20T08:06:28.302Z,4.73
2018-08-20T08:09:02.778Z,3.33
2018-08-20T08:11:31.671Z,3.77
2018-08-20T08:14:02.239Z,2.53
2018-08-20T08:16:31.122Z,11.23
2018-08-20T08:19:00.075Z,1.90
2018-08-20T08:21:29.003Z,4.00
2018-08-20T08:23:58.002Z,3.20
2018-08-20T08:26:27.047Z,5.17
2018-08-20T08:28:56.023Z,3.53
2018-08-20T08:31:24.985Z,2.93
2018-08-20T08:33:55.093Z,4.10
2018-08-20T08:36:24.063Z,3.50
2018-08-20T08:38:53.091Z,1.67
2018-08-20T08:41:22.134Z,4.87
2018-08-20T08:43:51.184Z,3.57
2018-08-20T08:46:20.283Z,3.80
2018-08-20T08:48:49.243Z,2.67
2018-08-20T08:51:18.297Z,4.53
2018-08-20T08:53:47.302Z,3.60
2018-08-20T08:56:16.234Z,3.17
2018-08-20T08:58:45.232Z,2.50
2018-08-20T09:01:14.225Z,3.67
2018-08-20T09:03:43.278Z,4.07
2018-08-20T09:06:12.197Z,4.23
2018-08-20T09:08:41.283Z,4.77
2018-08-20T09:11:10.241Z,4.80
2018-08-20T09:13:39.955Z,3.63
2018-08-20T09:16:08.903Z,6.23
2018-08-20T09:18:37.791Z,3.33
2018-08-20T09:21:06.767Z,6.17
2018-08-20T09:23:35.641Z,3.60
2018-08-20T09:26:04.620Z,2.90
2018-08-20T09:28:33.563Z,5.80
2018-08-20T09:31:02.539Z,8.40
2018-08-20T09:33:31.661Z,3.63
2018-08-20T09:36:00.569Z,4.57
2018-08-20T09:38:29.512Z,6.00
2018-08-20T09:40:58.550Z,2.70
2018-08-20T09:43:27.423Z,5.00
2018-08-20T09:45:56.408Z,6.10
2018-08-20T09:48:25.279Z,4.80
2018-08-20T09:50:54.269Z,3.20
2018-08-20T09:53:23.233Z,3.43
2018-08-20T09:55:52.091Z,7.53
2018-08-20T09:58:21.029Z,4.67
2018-08-20T10:00:49.963Z,6.33
2018-08-20T10:03:19.033Z,2.77
2018-08-20T10:05:48.011Z,4.20
2018-08-20T10:08:16.957Z,4.47
2018-08-20T10:10:45.911Z,8.10
2018-08-20T10:13:14.872Z,5.03
2018-08-20T10:15:43.857Z,5.30
2018-08-20T10:18:12.792Z,2.40
2018-08-20T10:20:41.816Z,2.93
2018-08-20T10:23:10.703Z,2.97
2018-08-20T10:25:39.721Z,5.60
2018-08-20T10:28:08.644Z,3.37
2018-08-20T10:30:37.583Z,4.73
2018-08-20T10:33:06.603Z,5.50
2018-08-20T10:35:36.578Z,3.50
2018-08-20T10:38:06.442Z,1.67
2018-08-20T10:40:35.371Z,1.50
2018-08-20T10:43:04.467Z,1.43
2018-08-20T10:45:39.690Z,1.10
2018-08-20T10:48:08.709Z,1.00
2018-08-20T10:50:37.741Z,1.23
2018-08-20T10:53:07.036Z,1.20
2018-08-20T10:55:36.008Z,1.57
2018-08-20T10:58:04.976Z,2.20
2018-08-20T11:00:33.992Z,1.60
2018-08-20T11:03:03.061Z,0.93
2018-08-20T11:05:32.032Z,1.07
2018-08-20T11:08:00.992Z,1.00
2018-08-20T11:10:30.005Z,1.60
2018-08-20T11:12:58.994Z,0.80
2018-08-20T11:15:27.917Z,1.27
2018-08-20T11:17:56.894Z,1.53
2018-08-20T11:20:25.830Z,1.30
2018-08-20T11:22:54.764Z,1.70
2018-08-20T11:25:23.784Z,1.60
2018-08-20T11:27:52.684Z,0.97
2018-08-20T11:30:21.686Z,1.10
2018-08-20T11:32:50.598Z,1.77
2018-08-20T11:35:19.597Z,1.30
2018-08-20T11:37:48.593Z,1.20
2018-08-20T11:40:17.556Z,1.00
2018-08-20T11:42:46.585Z,1.00
2018-08-20T11:45:15.568Z,1.10
2018-08-20T11:47:44.808Z,1.60
2018-08-20T11:50:13.744Z,2.07
2018-08-20T11:52:42.744Z,1.40
2018-08-20T11:55:11.789Z,1.27
2018-08-20T11:57:40.762Z,1.40
2018-08-20T12:00:10.738Z,2.07
2018-08-20T12:02:40.113Z,1.30
2018-08-20T12:05:10.162Z,1.97
2018-08-20T12:07:39.261Z,2.40
2018-08-20T12:10:09.874Z,1.53
2018-08-20T12:12:39.373Z,1.30
2018-08-20T12:15:10.384Z,1.40
2018-08-20T12:17:39.629Z,2.20
2018-08-20T12:20:09.435Z,1.33
2018-08-20T12:22:39.236Z,2.00
2018-08-20T12:25:11.796Z,1.43
2018-08-20T12:27:40.804Z,1.10
2018-08-20T12:30:10.896Z,1.23
2018-08-20T12:32:40.340Z,1.10
2018-08-20T12:35:09.910Z,1.50
2018-08-20T12:37:40.146Z,2.33
2018-08-20T12:40:09.116Z,1.87
2018-08-20T12:42:38.000Z,7.17
2018-08-20T12:45:07.454Z,1.20
2018-08-20T12:47:36.407Z,2.67
2018-08-20T12:50:05.702Z,3.00
2018-08-20T12:52:34.651Z,2.10
2018-08-20T12:55:03.594Z,2.70
2018-08-20T12:57:32.556Z,1.37
2018-08-20T13:00:01.526Z,3.00
2018-08-20T13:02:30.399Z,2.13
2018-08-20T13:04:59.393Z,2.47
2018-08-20T13:07:28.386Z,1.83
2018-08-20T13:09:57.312Z,2.33
2018-08-20T13:12:26.342Z,1.20
2018-08-20T13:14:55.304Z,1.47
2018-08-20T13:17:24.329Z,1.93
2018-08-20T13:19:53.428Z,1.50
2018-08-20T13:22:27.800Z,2.43
2018-08-20T13:25:03.437Z,2.03
2018-08-20T13:27:32.356Z,1.70
2018-08-20T13:30:01.326Z,1.73
2018-08-20T13:32:30.269Z,3.40
2018-08-20T13:34:59.214Z,1.63
2018-08-20T13:37:28.284Z,3.50
2018-08-20T13:39:57.196Z,1.97
2018-08-20T13:42:26.104Z,4.40
2018-08-20T13:44:55.040Z,2.30
2018-08-20T13:47:23.919Z,3.40
2018-08-20T13:49:55.265Z,2.20
2018-08-20T13:52:24.165Z,2.70
2018-08-20T13:54:53.130Z,3.57
2018-08-20T13:57:22.066Z,1.73
2018-08-20T13:59:51.029Z,1.67
2018-08-20T14:02:19.960Z,1.73
2018-08-20T14:04:48.959Z,2.50
2018-08-20T14:07:17.899Z,2.87
2018-08-20T14:09:46.827Z,2.43
2018-08-20T14:12:15.719Z,2.10
2018-08-20T14:14:44.683Z,1.20
2018-08-20T14:17:19.208Z,4.47
2018-08-20T14:19:48.178Z,2.20
2018-08-20T14:22:17.110Z,1.43
2018-08-20T14:24:46.074Z,4.00
2018-08-20T14:27:14.963Z,1.53
2018-08-20T14:29:43.973Z,1.80
2018-08-20T14:32:12.876Z,1.00
2018-08-20T14:34:41.874Z,1.87
2018-08-20T14:37:10.872Z,3.30
2018-08-20T14:39:39.824Z,1.10
2018-08-20T14:44:38.052Z,1.50
2018-08-20T14:47:10.752Z,3.07
2018-08-20T14:49:40.364Z,1.50
2018-08-20T14:59:07.042Z,2.93
2018-08-20T15:01:36.522Z,1.57
2018-08-20T15:04:05.446Z,1.10
2018-08-20T15:06:39.538Z,1.50
2018-08-20T15:09:09.538Z,2.93
2018-08-20T15:11:38.514Z,2.63
2018-08-20T15:14:07.510Z,1.63
2018-08-20T15:16:36.548Z,1.53
2018-08-20T15:19:05.500Z,2.90
2018-08-20T15:21:37.991Z,2.83
2018-08-20T15:24:06.927Z,1.60
2018-08-20T15:26:35.981Z,2.10
2018-08-20T15:29:05.169Z,1.47
2018-08-20T15:31:36.223Z,3.17
2018-08-20T15:34:06.295Z,1.70
2018-08-20T15:36:39.231Z,4.13
2018-08-20T15:39:08.783Z,1.80
2018-08-20T15:41:38.743Z,1.30
2018-08-20T15:44:08.765Z,3.27
2018-08-20T15:46:37.736Z,4.40
2018-08-20T15:49:06.989Z,1.77
2018-08-20T15:51:36.211Z,2.70
2018-08-20T15:54:07.274Z,1.30
2018-08-20T15:56:36.213Z,2.17
2018-08-20T15:59:05.205Z,2.67
2018-08-20T16:01:34.149Z,2.50
2018-08-20T16:04:03.099Z,1.70
2018-08-20T16:06:37.684Z,1.73
2018-08-20T16:09:08.477Z,1.73
2018-08-20T16:11:39.475Z,2.30
2018-08-20T16:14:08.547Z,1.40
2018-08-20T16:16:39.517Z,1.70
2018-08-20T16:19:19.516Z,1.47
2018-08-20T16:21:51.561Z,2.50
2018-08-20T16:24:23.085Z,1.77
2018-08-20T16:27:01.496Z,1.90
2018-08-20T16:29:39.643Z,3.30
2018-08-20T16:32:10.574Z,5.23
2018-08-20T16:34:42.229Z,3.30
2018-08-20T16:37:13.321Z,11.67
2018-08-20T16:39:42.394Z,11.30
2018-08-20T16:42:11.340Z,16.23
2018-08-20T16:44:40.309Z,7.57
2018-08-20T16:47:09.306Z,53.57
2018-08-20T16:49:38.230Z,7.73
2018-08-20T16:52:07.278Z,69.60
2018-08-20T16:54:36.248Z,33.03
2018-08-20T16:57:05.290Z,21.77
2018-08-20T16:59:34.254Z,17.73
2018-08-20T17:02:03.218Z,19.87
2018-08-20T17:04:38.824Z,19.90
2018-08-20T17:07:07.747Z,27.53
2018-08-20T17:09:36.787Z,3.97
2018-08-20T17:12:05.813Z,15.23
2018-08-20T17:14:34.682Z,7.83
2018-08-20T17:17:03.695Z,2.03
2018-08-20T17:19:32.745Z,2.40
2018-08-20T17:22:01.943Z,1.77
2018-08-20T17:24:36.177Z,4.23
2018-08-20T17:27:05.134Z,2.13
2018-08-20T17:29:34.075Z,5.40
2018-08-20T17:32:04.459Z,2.50
2018-08-20T17:34:33.389Z,4.57
2018-08-20T17:37:02.359Z,1.80
2018-08-20T17:39:31.323Z,1.67
2018-08-20T17:42:00.299Z,2.03
2018-08-20T17:44:29.207Z,2.13
2018-08-20T17:46:58.131Z,2.00
2018-08-20T17:49:28.979Z,2.27
2018-08-20T17:51:57.975Z,2.53
2018-08-20T17:54:29.473Z,2.17
2018-08-20T17:56:58.515Z,6.57
2018-08-20T17:59:27.418Z,3.07
2018-08-20T18:01:56.381Z,3.13
2018-08-20T18:04:25.315Z,1.90
2018-08-20T18:06:55.677Z,1.70
2018-08-20T18:09:24.658Z,4.77
2018-08-20T18:11:54.917Z,2.10
2018-08-20T18:14:25.927Z,4.13
2018-08-20T18:16:54.978Z,1.63
2018-08-20T18:19:23.924Z,2.70
2018-08-20T18:21:52.927Z,1.97
2018-08-20T18:24:22.498Z,3.73
2018-08-20T18:26:55.899Z,2.17
2018-08-20T18:29:24.845Z,2.00
2018-08-20T18:31:57.879Z,1.60
2018-08-20T18:34:26.825Z,2.33
2018-08-20T18:36:55.722Z,4.57
2018-08-20T18:39:24.752Z,2.57
2018-08-20T18:41:58.561Z,3.47
2018-08-20T18:44:27.509Z,1.93
2018-08-20T18:46:56.443Z,5.97
2018-08-20T18:49:25.553Z,2.30
2018-08-20T18:52:11.045Z,4.83
2018-08-20T18:54:42.089Z,3.20
2018-08-20T18:57:15.423Z,2.93
2018-08-20T18:59:44.368Z,3.60
2018-08-20T19:02:21.030Z,2.97
2018-08-20T19:04:49.974Z,2.90
2018-08-20T19:07:18.986Z,3.37
2018-08-20T19:09:49.569Z,3.60
2018-08-20T19:12:19.502Z,6.97
2018-08-20T19:14:48.455Z,4.00
2018-08-20T19:17:24.282Z,3.60
2018-08-20T19:19:53.160Z,3.07
2018-08-20T19:22:28.116Z,3.23
2018-08-20T19:24:57.085Z,3.43
2018-08-20T19:27:30.444Z,3.50
2018-08-20T19:30:07.328Z,2.80
2018-08-20T19:32:36.259Z,4.03
2018-08-20T19:35:05.213Z,4.60
2018-08-20T19:37:34.247Z,3.50
2018-08-20T19:40:03.213Z,3.07
2018-08-20T19:42:33.957Z,5.67
2018-08-20T19:45:04.745Z,4.83
2018-08-20T19:47:34.160Z,3.03
2018-08-20T19:50:03.291Z,3.67
2018-08-20T19:52:32.292Z,3.23
2018-08-20T19:55:08.316Z,3.77
2018-08-20T19:57:37.265Z,3.23
2018-08-20T20:00:13.147Z,4.00
2018-08-20T20:02:43.148Z,3.07
2018-08-20T20:05:14.395Z,3.57
2018-08-20T20:07:54.593Z,3.70
2018-08-20T20:10:23.500Z,4.03
2018-08-20T20:12:53.959Z,4.37
2018-08-20T20:15:23.576Z,4.73
2018-08-20T20:17:53.119Z,5.33
2018-08-20T20:20:21.994Z,4.27
2018-08-20T20:22:50.933Z,4.90
2018-08-20T20:25:19.999Z,3.77
2018-08-20T20:27:48.934Z,3.90
2018-08-20T20:30:17.877Z,5.00
2018-08-20T20:32:46.900Z,4.67
2018-08-20T20:35:15.817Z,3.87
2018-08-20T20:37:44.695Z,3.33
2018-08-20T20:40:13.593Z,4.90
2018-08-20T20:42:42.499Z,4.37
2018-08-20T20:45:11.433Z,3.50
2018-08-20T20:47:40.393Z,5.33
2018-08-20T20:50:09.316Z,3.70
2018-08-20T20:52:38.562Z,3.40
2018-08-20T20:55:07.528Z,3.40
2018-08-20T20:57:36.512Z,4.57
2018-08-20T21:00:06.472Z,4.80
2018-08-20T21:02:35.384Z,4.40
2018-08-20T21:05:08.803Z,4.00
2018-08-20T21:07:37.839Z,4.03
2018-08-20T21:10:07.624Z,5.73
2018-08-20T21:12:36.581Z,3.70
2018-08-20T21:15:06.804Z,3.33
2018-08-20T21:17:37.512Z,3.70
2018-08-20T21:20:07.464Z,4.53
2018-08-20T21:22:37.074Z,5.03
2018-08-20T21:25:06.662Z,4.10
2018-08-20T21:27:35.588Z,4.30
2018-08-20T21:30:04.562Z,5.60
2018-08-20T21:32:33.548Z,5.63
2018-08-20T21:35:02.441Z,4.37
2018-08-20T21:37:31.347Z,4.50
2018-08-20T21:40:00.264Z,5.37
2018-08-20T21:42:33.324Z,6.40
2018-08-20T21:45:02.277Z,5.67
2018-08-20T21:47:32.014Z,7.30
2018-08-20T21:50:00.929Z,6.10
2018-08-20T21:52:29.858Z,6.00
2018-08-20T21:54:58.764Z,6.33
2018-08-20T21:57:27.680Z,6.73
2018-08-20T22:00:08.054Z,6.57
2018-08-20T22:02:37.855Z,6.77
2018-08-20T22:05:07.028Z,7.37
2018-08-20T22:07:36.573Z,7.73
2018-08-20T22:10:05.877Z,5.43
2018-08-20T22:12:34.844Z,4.87
2018-08-20T22:15:03.851Z,6.83
2018-08-20T22:17:32.747Z,5.57
2018-08-20T22:20:01.696Z,7.20
2018-08-20T22:22:30.587Z,6.40
2018-08-20T22:25:01.551Z,7.97
2018-08-20T22:27:34.615Z,7.73
2018-08-20T22:30:03.954Z,6.07
2018-08-20T22:32:34.271Z,9.70
2018-08-20T22:35:08.525Z,9.37
2018-08-20T22:37:37.423Z,8.27
2018-08-20T22:40:12.288Z,7.07
2018-08-20T22:42:47.696Z,9.37
2018-08-20T22:45:17.730Z,5.93
2018-08-20T22:47:47.604Z,6.67
2018-08-20T22:50:16.625Z,6.20
2018-08-20T22:52:46.997Z,6.70
2018-08-20T22:55:17.220Z,6.97
2018-08-20T22:57:57.920Z,6.33
2018-08-20T23:00:27.423Z,6.97
2018-08-20T23:02:57.160Z,6.13
2018-08-20T23:05:29.261Z,8.57
2018-08-20T23:08:10.124Z,10.10
2018-08-20T23:10:40.029Z,9.87
2018-08-20T23:13:08.970Z,9.30
2018-08-20T23:15:37.897Z,9.67
2018-08-20T23:18:06.789Z,11.30
2018-08-20T23:20:35.881Z,9.23
2018-08-20T23:23:04.819Z,8.80
2018-08-20T23:25:33.828Z,8.97
2018-08-20T23:28:02.761Z,7.33
2018-08-20T23:30:31.668Z,10.20
2018-08-20T23:33:00.535Z,6.30
2018-08-20T23:35:29.419Z,7.70
2018-08-20T23:37:58.351Z,8.93
2018-08-20T23:40:27.288Z,6.87
2018-08-20T23:42:56.164Z,6.77
2018-08-20T23:45:25.101Z,10.53
2018-08-20T23:47:54.012Z,9.13
2018-08-20T23:50:22.915Z,10.17
2018-08-20T23:52:51.841Z,7.73
2018-08-20T23:55:20.799Z,9.90
2018-08-20T23:57:49.726Z,10.80
